createdAt,value
2023-05-06T06:32:27.492Z,9.77
2023-05-06T06:39:49.300Z,8.63
2023-05-06T06:42:16.554Z,9.05
2023-05-06T06:44:51.778Z,8.85
2023-05-06T06:59:35.388Z,7.97
2023-05-06T07:02:02.958Z,5.95
2023-05-06T07:04:30.286Z,6.47
2023-05-06T07:06:57.570Z,6.80
2023-05-06T07:09:24.810Z,5.03
2023-05-06T07:11:52.111Z,6.97
2023-05-06T07:14:19.526Z,6.80
2023-05-06T07:16:47.670Z,5.57
2023-05-06T07:19:16.623Z,6.18
2023-05-06T07:21:43.850Z,6.40
2023-05-06T07:38:56.369Z,6.28
2023-05-06T07:58:34.795Z,5.13
2023-05-06T08:01:03.407Z,4.97
2023-05-06T08:03:31.862Z,4.95
2023-05-06T08:08:28.166Z,4.20
2023-05-06T08:10:58.932Z,5.90
2023-05-06T08:13:27.097Z,4.80
2023-05-06T08:15:54.796Z,4.72
2023-05-06T08:18:23.349Z,4.00
2023-05-06T08:20:51.372Z,4.28
2023-05-06T08:23:18.698Z,3.30
2023-05-06T08:25:46.741Z,3.78
2023-05-06T08:28:14.153Z,3.45
2023-05-06T08:30:41.457Z,4.03
2023-05-06T08:33:09.057Z,3.85
2023-05-06T08:35:36.419Z,3.80
2023-05-06T08:38:03.828Z,3.80
2023-05-06T08:40:33.771Z,4.85
2023-05-06T08:43:03.905Z,3.85
2023-05-06T08:45:31.243Z,2.72
2023-05-06T08:47:58.527Z,3.78
2023-05-06T08:50:26.405Z,2.90
2023-05-06T08:52:53.694Z,3.75
2023-05-06T08:55:22.701Z,3.55
2023-05-06T08:57:50.322Z,3.72
2023-05-06T09:00:17.665Z,3.10
2023-05-06T09:02:45.156Z,2.28
2023-05-06T09:05:12.813Z,2.55
2023-05-06T09:12:38.093Z,3.38
2023-05-06T09:15:05.640Z,3.30
2023-05-06T09:17:33.281Z,2.95
2023-05-06T09:20:00.685Z,2.42
2023-05-06T09:22:28.925Z,1.90
2023-05-06T09:24:57.344Z,2.30
2023-05-06T09:27:32.052Z,2.08
2023-05-06T09:57:01.038Z,2.38
2023-05-06T09:59:29.491Z,1.90
2023-05-06T10:26:31.798Z,1.80
2023-05-06T10:29:00.902Z,1.75
2023-05-06T10:31:29.222Z,1.45
2023-05-06T21:01:01.717Z,3.30
2023-05-06T21:03:30.599Z,2.67
